sensor_id;sensor_type;location;lat;lon;timestamp;P1;durP1;ratioP1;P2;durP2;ratioP2
479;SDS011;226;48.606;9.096;2022-12-20T00:01:28;9.93;;;6.37;;
479;SDS011;226;48.606;9.096;2022-12-20T00:04:00;13.50;;;6.20;;
479;SDS011;226;48.606;9.096;2022-12-20T00:06:29;8.87;;;7.40;;
479;SDS011;226;48.606;9.096;2022-12-20T00:08:57;9.47;;;6.07;;
479;SDS011;226;48.606;9.096;2022-12-20T00:11:27;13.37;;;8.47;;
479;SDS011;226;48.606;9.096;2022-12-20T00:13:56;21.10;;;7.53;;
479;SDS011;226;48.606;9.096;2022-12-20T00:16:25;17.03;;;8.33;;
479;SDS011;226;48.606;9.096;2022-12-20T00:18:55;21.47;;;8.23;;
479;SDS011;226;48.606;9.096;2022-12-20T00:21:25;17.60;;;8.00;;
479;SDS011;226;48.606;9.096;2022-12-20T00:23:54;17.77;;;8.10;;
479;SDS011;226;48.606;9.096;2022-12-20T00:26:23;14.30;;;8.43;;
479;SDS011;226;48.606;9.096;2022-12-20T00:28:53;10.97;;;8.20;;
479;SDS011;226;48.606;9.096;2022-12-20T00:31:22;11.87;;;8.93;;
479;SDS011;226;48.606;9.096;2022-12-20T00:33:52;12.60;;;7.97;;
479;SDS011;226;48.606;9.096;2022-12-20T00:36:22;11.60;;;7.83;;
479;SDS011;226;48.606;9.096;2022-12-20T00:38:54;18.63;;;7.43;;
479;SDS011;226;48.606;9.096;2022-12-20T00:41:23;15.97;;;8.67;;
479;SDS011;226;48.606;9.096;2022-12-20T00:43:53;40.43;;;7.90;;
479;SDS011;226;48.606;9.096;2022-12-20T00:46:22;28.40;;;8.07;;
479;SDS011;226;48.606;9.096;2022-12-20T00:48:51;12.80;;;8.30;;
479;SDS011;226;48.606;9.096;2022-12-20T00:51:20;10.90;;;6.53;;
479;SDS011;226;48.606;9.096;2022-12-20T00:53:50;22.73;;;10.63;;
479;SDS011;226;48.606;9.096;2022-12-20T00:56:20;13.73;;;6.40;;
479;SDS011;226;48.606;9.096;2022-12-20T00:58:51;11.80;;;7.13;;
479;SDS011;226;48.606;9.096;2022-12-20T01:01:21;18.70;;;10.20;;
479;SDS011;226;48.606;9.096;2022-12-20T01:03:51;11.00;;;7.80;;
479;SDS011;226;48.606;9.096;2022-12-20T01:06:20;14.77;;;7.67;;
479;SDS011;226;48.606;9.096;2022-12-20T01:08:50;9.20;;;7.80;;
479;SDS011;226;48.606;9.096;2022-12-20T01:11:21;16.90;;;6.97;;
479;SDS011;226;48.606;9.096;2022-12-20T01:13:50;22.33;;;9.60;;
479;SDS011;226;48.606;9.096;2022-12-20T01:16:20;14.90;;;8.67;;
479;SDS011;226;48.606;9.096;2022-12-20T01:18:50;10.50;;;7.10;;
479;SDS011;226;48.606;9.096;2022-12-20T01:21:19;14.50;;;8.70;;
479;SDS011;226;48.606;9.096;2022-12-20T01:23:48;7.73;;;6.10;;
479;SDS011;226;48.606;9.096;2022-12-20T01:26:17;19.00;;;8.97;;
479;SDS011;226;48.606;9.096;2022-12-20T01:28:51;15.87;;;8.10;;
479;SDS011;226;48.606;9.096;2022-12-20T01:31:21;12.10;;;8.27;;
479;SDS011;226;48.606;9.096;2022-12-20T01:33:50;13.93;;;7.00;;
479;SDS011;226;48.606;9.096;2022-12-20T01:36:19;10.33;;;7.03;;
479;SDS011;226;48.606;9.096;2022-12-20T01:38:54;8.10;;;7.30;;
479;SDS011;226;48.606;9.096;2022-12-20T01:41:24;13.67;;;7.80;;
479;SDS011;226;48.606;9.096;2022-12-20T01:43:54;12.93;;;7.60;;
479;SDS011;226;48.606;9.096;2022-12-20T01:46:24;7.43;;;6.73;;
479;SDS011;226;48.606;9.096;2022-12-20T01:48:55;14.50;;;6.47;;
479;SDS011;226;48.606;9.096;2022-12-20T01:51:28;16.30;;;5.13;;
479;SDS011;226;48.606;9.096;2022-12-20T01:54:00;15.63;;;7.10;;
479;SDS011;226;48.606;9.096;2022-12-20T01:56:34;11.80;;;6.60;;
479;SDS011;226;48.606;9.096;2022-12-20T01:59:04;10.80;;;6.63;;
479;SDS011;226;48.606;9.096;2022-12-20T02:01:32;17.20;;;10.13;;
479;SDS011;226;48.606;9.096;2022-12-20T02:04:01;9.17;;;7.50;;
479;SDS011;226;48.606;9.096;2022-12-20T02:06:29;16.20;;;8.30;;
479;SDS011;226;48.606;9.096;2022-12-20T02:08:58;11.63;;;8.03;;
479;SDS011;226;48.606;9.096;2022-12-20T02:11:36;7.67;;;6.53;;
479;SDS011;226;48.606;9.096;2022-12-20T02:14:18;14.10;;;8.97;;
479;SDS011;226;48.606;9.096;2022-12-20T02:17:00;10.70;;;6.07;;
479;SDS011;226;48.606;9.096;2022-12-20T02:19:42;12.87;;;6.50;;
479;SDS011;226;48.606;9.096;2022-12-20T02:22:25;10.50;;;9.00;;
479;SDS011;226;48.606;9.096;2022-12-20T02:25:05;8.27;;;5.43;;
479;SDS011;226;48.606;9.096;2022-12-20T02:27:50;8.13;;;5.67;;
479;SDS011;226;48.606;9.096;2022-12-20T02:30:28;9.77;;;6.77;;
479;SDS011;226;48.606;9.096;2022-12-20T02:33:01;6.90;;;5.93;;
479;SDS011;226;48.606;9.096;2022-12-20T02:35:33;9.27;;;5.50;;
479;SDS011;226;48.606;9.096;2022-12-20T02:38:22;10.77;;;5.30;;
479;SDS011;226;48.606;9.096;2022-12-20T02:40:53;7.70;;;5.17;;
479;SDS011;226;48.606;9.096;2022-12-20T02:43:26;14.53;;;7.77;;
479;SDS011;226;48.606;9.096;2022-12-20T02:46:15;6.83;;;5.83;;
479;SDS011;226;48.606;9.096;2022-12-20T02:48:46;7.67;;;5.13;;
479;SDS011;226;48.606;9.096;2022-12-20T02:51:15;6.90;;;6.13;;
479;SDS011;226;48.606;9.096;2022-12-20T02:53:46;12.20;;;5.27;;
479;SDS011;226;48.606;9.096;2022-12-20T02:56:15;11.53;;;6.30;;
479;SDS011;226;48.606;9.096;2022-12-20T02:58:50;7.27;;;5.23;;
479;SDS011;226;48.606;9.096;2022-12-20T03:01:26;7.70;;;6.00;;
479;SDS011;226;48.606;9.096;2022-12-20T03:03:57;14.27;;;5.50;;
479;SDS011;226;48.606;9.096;2022-12-20T03:06:26;7.13;;;6.60;;
479;SDS011;226;48.606;9.096;2022-12-20T03:08:55;8.40;;;6.87;;
479;SDS011;226;48.606;9.096;2022-12-20T03:11:23;7.63;;;5.53;;
479;SDS011;226;48.606;9.096;2022-12-20T03:13:52;16.03;;;6.47;;
479;SDS011;226;48.606;9.096;2022-12-20T03:16:20;9.00;;;6.23;;
479;SDS011;226;48.606;9.096;2022-12-20T03:18:49;7.37;;;6.60;;
479;SDS011;226;48.606;9.096;2022-12-20T03:21:17;12.17;;;7.60;;
479;SDS011;226;48.606;9.096;2022-12-20T03:23:45;12.53;;;6.27;;
479;SDS011;226;48.606;9.096;2022-12-20T03:26:13;12.63;;;7.40;;
479;SDS011;226;48.606;9.096;2022-12-20T03:28:41;9.33;;;6.90;;
479;SDS011;226;48.606;9.096;2022-12-20T03:31:09;10.53;;;7.00;;
479;SDS011;226;48.606;9.096;2022-12-20T03:33:37;11.70;;;5.83;;
479;SDS011;226;48.606;9.096;2022-12-20T03:36:07;10.50;;;6.90;;
479;SDS011;226;48.606;9.096;2022-12-20T03:38:35;17.20;;;10.50;;
479;SDS011;226;48.606;9.096;2022-12-20T03:41:03;7.00;;;6.30;;
479;SDS011;226;48.606;9.096;2022-12-20T03:43:31;11.70;;;8.03;;
479;SDS011;226;48.606;9.096;2022-12-20T03:45:59;7.17;;;5.60;;
479;SDS011;226;48.606;9.096;2022-12-20T03:48:27;7.80;;;6.57;;
479;SDS011;226;48.606;9.096;2022-12-20T03:50:56;18.60;;;10.17;;
479;SDS011;226;48.606;9.096;2022-12-20T03:53:25;18.73;;;7.53;;
479;SDS011;226;48.606;9.096;2022-12-20T03:55:53;13.33;;;7.00;;
479;SDS011;226;48.606;9.096;2022-12-20T03:58:21;10.90;;;7.40;;
479;SDS011;226;48.606;9.096;2022-12-20T04:00:49;11.00;;;6.97;;
479;SDS011;226;48.606;9.096;2022-12-20T04:03:18;9.70;;;6.10;;
479;SDS011;226;48.606;9.096;2022-12-20T04:05:46;7.77;;;5.40;;
479;SDS011;226;48.606;9.096;2022-12-20T04:08:14;10.73;;;6.60;;
479;SDS011;226;48.606;9.096;2022-12-20T04:10:43;16.50;;;8.07;;
479;SDS011;226;48.606;9.096;2022-12-20T04:13:28;8.67;;;5.40;;
479;SDS011;226;48.606;9.096;2022-12-20T04:15:56;10.90;;;6.40;;
479;SDS011;226;48.606;9.096;2022-12-20T04:18:26;8.03;;;6.17;;
479;SDS011;226;48.606;9.096;2022-12-20T04:20:54;6.27;;;5.40;;
479;SDS011;226;48.606;9.096;2022-12-20T04:23:22;10.23;;;6.80;;
479;SDS011;226;48.606;9.096;2022-12-20T04:25:52;13.93;;;8.23;;
479;SDS011;226;48.606;9.096;2022-12-20T04:28:20;11.67;;;6.70;;
479;SDS011;226;48.606;9.096;2022-12-20T04:30:48;12.27;;;6.93;;
479;SDS011;226;48.606;9.096;2022-12-20T04:33:16;17.30;;;7.63;;
479;SDS011;226;48.606;9.096;2022-12-20T04:35:44;7.23;;;6.53;;
479;SDS011;226;48.606;9.096;2022-12-20T04:38:12;8.47;;;6.97;;
479;SDS011;226;48.606;9.096;2022-12-20T04:40:40;13.57;;;7.10;;
479;SDS011;226;48.606;9.096;2022-12-20T04:43:10;7.27;;;6.53;;
479;SDS011;226;48.606;9.096;2022-12-20T04:45:38;9.37;;;6.43;;
479;SDS011;226;48.606;9.096;2022-12-20T04:48:06;5.93;;;5.33;;
479;SDS011;226;48.606;9.096;2022-12-20T04:50:54;7.27;;;6.53;;
479;SDS011;226;48.606;9.096;2022-12-20T04:53:23;14.00;;;6.33;;
479;SDS011;226;48.606;9.096;2022-12-20T04:56:08;7.67;;;6.27;;
479;SDS011;226;48.606;9.096;2022-12-20T04:58:38;7.90;;;6.50;;
479;SDS011;226;48.606;9.096;2022-12-20T05:01:06;9.90;;;6.47;;
479;SDS011;226;48.606;9.096;2022-12-20T05:03:34;8.37;;;5.30;;
479;SDS011;226;48.606;9.096;2022-12-20T05:06:03;11.10;;;6.30;;
479;SDS011;226;48.606;9.096;2022-12-20T05:08:32;11.00;;;6.33;;
479;SDS011;226;48.606;9.096;2022-12-20T05:11:00;8.23;;;6.10;;
479;SDS011;226;48.606;9.096;2022-12-20T05:13:28;9.07;;;6.53;;
479;SDS011;226;48.606;9.096;2022-12-20T05:15:58;7.43;;;6.70;;
479;SDS011;226;48.606;9.096;2022-12-20T05:18:26;13.57;;;7.80;;
479;SDS011;226;48.606;9.096;2022-12-20T05:20:55;15.70;;;7.80;;
479;SDS011;226;48.606;9.096;2022-12-20T05:23:42;6.33;;;5.73;;
479;SDS011;226;48.606;9.096;2022-12-20T05:26:28;8.13;;;6.87;;
479;SDS011;226;48.606;9.096;2022-12-20T05:28:58;11.07;;;6.90;;
479;SDS011;226;48.606;9.096;2022-12-20T05:31:27;11.40;;;8.33;;
479;SDS011;226;48.606;9.096;2022-12-20T05:33:56;17.07;;;7.50;;
479;SDS011;226;48.606;9.096;2022-12-20T05:36:24;6.40;;;5.50;;
479;SDS011;226;48.606;9.096;2022-12-20T05:38:52;10.70;;;7.80;;
479;SDS011;226;48.606;9.096;2022-12-20T05:41:29;10.40;;;6.17;;
479;SDS011;226;48.606;9.096;2022-12-20T05:43:57;11.40;;;8.80;;
479;SDS011;226;48.606;9.096;2022-12-20T05:46:25;14.00;;;9.17;;
479;SDS011;226;48.606;9.096;2022-12-20T05:48:55;8.00;;;6.00;;
479;SDS011;226;48.606;9.096;2022-12-20T05:51:23;14.43;;;9.00;;
479;SDS011;226;48.606;9.096;2022-12-20T05:53:51;11.00;;;7.60;;
479;SDS011;226;48.606;9.096;2022-12-20T05:56:20;5.10;;;4.40;;
479;SDS011;226;48.606;9.096;2022-12-20T05:58:48;6.63;;;6.00;;
479;SDS011;226;48.606;9.096;2022-12-20T06:01:16;14.10;;;8.70;;
479;SDS011;226;48.606;9.096;2022-12-20T06:03:44;7.53;;;6.90;;
479;SDS011;226;48.606;9.096;2022-12-20T06:06:14;12.50;;;8.40;;
479;SDS011;226;48.606;9.096;2022-12-20T06:08:42;11.57;;;7.37;;
479;SDS011;226;48.606;9.096;2022-12-20T06:11:10;25.23;;;10.07;;
479;SDS011;226;48.606;9.096;2022-12-20T06:13:38;11.43;;;8.17;;
479;SDS011;226;48.606;9.096;2022-12-20T06:16:06;7.30;;;6.40;;
479;SDS011;226;48.606;9.096;2022-12-20T06:18:34;13.63;;;7.50;;
479;SDS011;226;48.606;9.096;2022-12-20T06:21:03;24.33;;;9.17;;
479;SDS011;226;48.606;9.096;2022-12-20T06:23:32;9.03;;;6.77;;
479;SDS011;226;48.606;9.096;2022-12-20T06:26:01;15.00;;;6.77;;
479;SDS011;226;48.606;9.096;2022-12-20T06:28:29;8.93;;;5.90;;
479;SDS011;226;48.606;9.096;2022-12-20T06:30:58;5.90;;;5.30;;
479;SDS011;226;48.606;9.096;2022-12-20T06:33:26;5.73;;;5.10;;
479;SDS011;226;48.606;9.096;2022-12-20T06:35:54;8.47;;;5.70;;
479;SDS011;226;48.606;9.096;2022-12-20T06:38:22;9.33;;;5.90;;
479;SDS011;226;48.606;9.096;2022-12-20T06:40:51;8.53;;;5.87;;
479;SDS011;226;48.606;9.096;2022-12-20T06:43:20;7.70;;;6.93;;
479;SDS011;226;48.606;9.096;2022-12-20T06:45:48;6.90;;;6.07;;
479;SDS011;226;48.606;9.096;2022-12-20T06:48:16;7.53;;;4.80;;
479;SDS011;226;48.606;9.096;2022-12-20T06:50:46;8.83;;;5.73;;
479;SDS011;226;48.606;9.096;2022-12-20T06:53:21;7.47;;;5.27;;
479;SDS011;226;48.606;9.096;2022-12-20T06:55:49;10.80;;;7.17;;
479;SDS011;226;48.606;9.096;2022-12-20T06:58:19;10.33;;;5.60;;
479;SDS011;226;48.606;9.096;2022-12-20T07:00:47;9.20;;;7.77;;
479;SDS011;226;48.606;9.096;2022-12-20T07:03:16;6.73;;;6.20;;
479;SDS011;226;48.606;9.096;2022-12-20T07:05:45;13.40;;;6.23;;
479;SDS011;226;48.606;9.096;2022-12-20T07:08:18;5.40;;;4.70;;
479;SDS011;226;48.606;9.096;2022-12-20T07:10:47;12.13;;;5.53;;
479;SDS011;226;48.606;9.096;2022-12-20T07:13:17;9.20;;;5.90;;
479;SDS011;226;48.606;9.096;2022-12-20T07:15:45;6.50;;;4.63;;
479;SDS011;226;48.606;9.096;2022-12-20T07:18:13;9.50;;;6.63;;
479;SDS011;226;48.606;9.096;2022-12-20T07:20:41;8.63;;;5.93;;
479;SDS011;226;48.606;9.096;2022-12-20T07:23:09;8.23;;;5.00;;
479;SDS011;226;48.606;9.096;2022-12-20T07:25:38;7.30;;;4.67;;
479;SDS011;226;48.606;9.096;2022-12-20T07:28:06;12.20;;;4.27;;
479;SDS011;226;48.606;9.096;2022-12-20T07:30:37;4.70;;;4.30;;
479;SDS011;226;48.606;9.096;2022-12-20T07:33:05;3.73;;;3.30;;
479;SDS011;226;48.606;9.096;2022-12-20T07:35:33;4.43;;;3.47;;
479;SDS011;226;48.606;9.096;2022-12-20T07:38:02;9.30;;;4.33;;
479;SDS011;226;48.606;9.096;2022-12-20T07:40:30;11.17;;;5.90;;
479;SDS011;226;48.606;9.096;2022-12-20T07:42:58;7.03;;;5.53;;
479;SDS011;226;48.606;9.096;2022-12-20T07:45:26;6.90;;;4.50;;
479;SDS011;226;48.606;9.096;2022-12-20T07:47:56;5.77;;;4.70;;
479;SDS011;226;48.606;9.096;2022-12-20T07:50:32;9.70;;;5.33;;
479;SDS011;226;48.606;9.096;2022-12-20T07:53:01;6.80;;;4.40;;
479;SDS011;226;48.606;9.096;2022-12-20T07:55:32;9.50;;;4.37;;
479;SDS011;226;48.606;9.096;2022-12-20T07:58:01;10.13;;;3.70;;
479;SDS011;226;48.606;9.096;2022-12-20T08:00:32;7.57;;;4.70;;
479;SDS011;226;48.606;9.096;2022-12-20T08:03:03;12.17;;;4.70;;
479;SDS011;226;48.606;9.096;2022-12-20T08:05:35;4.30;;;4.00;;
479;SDS011;226;48.606;9.096;2022-12-20T08:08:06;6.87;;;4.43;;
479;SDS011;226;48.606;9.096;2022-12-20T08:10:35;8.00;;;3.90;;
479;SDS011;226;48.606;9.096;2022-12-20T08:13:04;6.90;;;3.77;;
479;SDS011;226;48.606;9.096;2022-12-20T08:15:34;5.80;;;3.63;;
479;SDS011;226;48.606;9.096;2022-12-20T08:18:04;7.53;;;4.80;;
479;SDS011;226;48.606;9.096;2022-12-20T08:20:32;9.80;;;4.63;;
479;SDS011;226;48.606;9.096;2022-12-20T08:23:01;7.53;;;6.17;;
479;SDS011;226;48.606;9.096;2022-12-20T08:25:29;8.57;;;4.57;;
479;SDS011;226;48.606;9.096;2022-12-20T08:28:06;4.47;;;3.90;;
479;SDS011;226;48.606;9.096;2022-12-20T08:30:34;11.50;;;6.23;;
479;SDS011;226;48.606;9.096;2022-12-20T08:33:04;3.90;;;3.60;;
479;SDS011;226;48.606;9.096;2022-12-20T08:35:33;5.20;;;3.97;;
479;SDS011;226;48.606;9.096;2022-12-20T08:38:01;5.90;;;4.17;;
479;SDS011;226;48.606;9.096;2022-12-20T08:40:29;7.23;;;4.37;;
479;SDS011;226;48.606;9.096;2022-12-20T08:42:57;6.03;;;3.30;;
479;SDS011;226;48.606;9.096;2022-12-20T08:45:35;3.00;;;2.80;;
479;SDS011;226;48.606;9.096;2022-12-20T08:48:04;3.10;;;2.90;;
479;SDS011;226;48.606;9.096;2022-12-20T08:50:33;7.60;;;3.70;;
479;SDS011;226;48.606;9.096;2022-12-20T08:53:01;4.37;;;3.97;;
479;SDS011;226;48.606;9.096;2022-12-20T08:55:29;4.80;;;4.30;;
479;SDS011;226;48.606;9.096;2022-12-20T08:57:58;6.13;;;3.73;;
479;SDS011;226;48.606;9.096;2022-12-20T09:00:26;6.23;;;4.87;;
479;SDS011;226;48.606;9.096;2022-12-20T09:02:54;3.67;;;3.37;;
479;SDS011;226;48.606;9.096;2022-12-20T09:05:24;6.43;;;3.80;;
479;SDS011;226;48.606;9.096;2022-12-20T09:10:20;4.00;;;3.10;;
479;SDS011;226;48.606;9.096;2022-12-20T09:12:48;5.03;;;4.60;;
479;SDS011;226;48.606;9.096;2022-12-20T09:15:16;3.93;;;3.73;;
479;SDS011;226;48.606;9.096;2022-12-20T09:17:45;5.30;;;3.60;;
479;SDS011;226;48.606;9.096;2022-12-20T09:20:13;4.80;;;3.40;;
479;SDS011;226;48.606;9.096;2022-12-20T09:22:42;7.50;;;5.20;;
479;SDS011;226;48.606;9.096;2022-12-20T09:25:11;9.97;;;4.97;;
479;SDS011;226;48.606;9.096;2022-12-20T09:27:39;5.07;;;4.50;;
479;SDS011;226;48.606;9.096;2022-12-20T09:30:08;9.57;;;4.93;;
479;SDS011;226;48.606;9.096;2022-12-20T09:32:36;8.83;;;4.50;;
479;SDS011;226;48.606;9.096;2022-12-20T09:35:05;7.97;;;4.90;;
479;SDS011;226;48.606;9.096;2022-12-20T09:37:33;8.87;;;5.20;;
479;SDS011;226;48.606;9.096;2022-12-20T09:40:03;3.43;;;3.13;;
479;SDS011;226;48.606;9.096;2022-12-20T09:42:34;5.73;;;4.30;;
479;SDS011;226;48.606;9.096;2022-12-20T09:45:05;9.03;;;4.30;;
479;SDS011;226;48.606;9.096;2022-12-20T09:47:35;11.63;;;4.07;;
479;SDS011;226;48.606;9.096;2022-12-20T09:50:05;13.00;;;4.67;;
479;SDS011;226;48.606;9.096;2022-12-20T09:52:38;5.30;;;4.17;;
479;SDS011;226;48.606;9.096;2022-12-20T09:55:21;10.40;;;5.13;;
479;SDS011;226;48.606;9.096;2022-12-20T09:57:57;6.73;;;5.70;;
479;SDS011;226;48.606;9.096;2022-12-20T10:00:42;7.93;;;4.13;;
479;SDS011;226;48.606;9.096;2022-12-20T10:03:20;12.70;;;6.17;;
479;SDS011;226;48.606;9.096;2022-12-20T10:05:51;7.23;;;4.37;;
479;SDS011;226;48.606;9.096;2022-12-20T10:08:28;8.87;;;5.07;;
479;SDS011;226;48.606;9.096;2022-12-20T10:11:08;8.80;;;4.63;;
479;SDS011;226;48.606;9.096;2022-12-20T10:13:49;3.90;;;3.50;;
479;SDS011;226;48.606;9.096;2022-12-20T10:16:30;4.07;;;3.53;;
479;SDS011;226;48.606;9.096;2022-12-20T10:19:07;4.77;;;3.30;;
479;SDS011;226;48.606;9.096;2022-12-20T10:21:50;7.67;;;3.90;;
479;SDS011;226;48.606;9.096;2022-12-20T10:24:26;11.73;;;5.30;;
479;SDS011;226;48.606;9.096;2022-12-20T10:27:01;17.87;;;8.83;;
479;SDS011;226;48.606;9.096;2022-12-20T10:29:37;20.00;;;6.73;;
479;SDS011;226;48.606;9.096;2022-12-20T10:32:09;12.43;;;6.57;;
479;SDS011;226;48.606;9.096;2022-12-20T10:34:43;8.40;;;7.00;;
479;SDS011;226;48.606;9.096;2022-12-20T10:37:17;5.43;;;4.57;;
479;SDS011;226;48.606;9.096;2022-12-20T10:39:46;10.37;;;5.87;;
479;SDS011;226;48.606;9.096;2022-12-20T10:42:23;8.30;;;5.03;;
479;SDS011;226;48.606;9.096;2022-12-20T10:44:56;5.33;;;3.47;;
479;SDS011;226;48.606;9.096;2022-12-20T10:47:30;5.97;;;4.30;;
479;SDS011;226;48.606;9.096;2022-12-20T10:50:14;7.47;;;4.90;;
479;SDS011;226;48.606;9.096;2022-12-20T10:52:44;6.90;;;3.43;;
479;SDS011;226;48.606;9.096;2022-12-20T10:55:32;11.37;;;5.80;;
479;SDS011;226;48.606;9.096;2022-12-20T10:58:05;6.73;;;5.10;;
479;SDS011;226;48.606;9.096;2022-12-20T11:00:40;10.77;;;4.17;;
479;SDS011;226;48.606;9.096;2022-12-20T11:03:10;9.37;;;4.70;;
479;SDS011;226;48.606;9.096;2022-12-20T11:05:52;8.73;;;3.97;;
479;SDS011;226;48.606;9.096;2022-12-20T11:08:22;6.60;;;4.97;;
479;SDS011;226;48.606;9.096;2022-12-20T11:11:10;8.10;;;5.10;;
479;SDS011;226;48.606;9.096;2022-12-20T11:13:43;7.00;;;5.03;;
479;SDS011;226;48.606;9.096;2022-12-20T11:16:22;6.37;;;4.47;;
479;SDS011;226;48.606;9.096;2022-12-20T11:19:05;6.40;;;4.80;;
479;SDS011;226;48.606;9.096;2022-12-20T11:21:50;14.30;;;5.30;;
479;SDS011;226;48.606;9.096;2022-12-20T11:24:25;13.70;;;6.53;;
479;SDS011;226;48.606;9.096;2022-12-20T11:27:03;10.37;;;5.30;;
479;SDS011;226;48.606;9.096;2022-12-20T11:29:59;13.10;;;6.87;;
479;SDS011;226;48.606;9.096;2022-12-20T11:32:40;14.23;;;7.77;;
479;SDS011;226;48.606;9.096;2022-12-20T11:35:21;11.40;;;6.53;;
479;SDS011;226;48.606;9.096;2022-12-20T11:37:58;10.33;;;6.07;;
479;SDS011;226;48.606;9.096;2022-12-20T11:40:37;10.60;;;6.80;;
479;SDS011;226;48.606;9.096;2022-12-20T11:43:18;13.90;;;6.20;;
479;SDS011;226;48.606;9.096;2022-12-20T11:46:03;21.37;;;7.97;;
479;SDS011;226;48.606;9.096;2022-12-20T11:48:44;18.03;;;7.13;;
479;SDS011;226;48.606;9.096;2022-12-20T11:51:28;10.23;;;5.47;;
479;SDS011;226;48.606;9.096;2022-12-20T11:54:07;5.73;;;4.07;;
479;SDS011;226;48.606;9.096;2022-12-20T11:56:40;4.87;;;3.60;;
479;SDS011;226;48.606;9.096;2022-12-20T11:59:11;8.33;;;3.73;;
479;SDS011;226;48.606;9.096;2022-12-20T12:01:46;5.93;;;3.20;;
479;SDS011;226;48.606;9.096;2022-12-20T12:04:20;3.93;;;2.80;;
479;SDS011;226;48.606;9.096;2022-12-20T12:06:53;4.20;;;3.20;;
479;SDS011;226;48.606;9.096;2022-12-20T12:09:26;4.37;;;3.10;;
479;SDS011;226;48.606;9.096;2022-12-20T12:12:01;6.20;;;3.53;;
479;SDS011;226;48.606;9.096;2022-12-20T12:14:37;3.50;;;3.23;;
479;SDS011;226;48.606;9.096;2022-12-20T12:17:15;4.53;;;3.10;;
479;SDS011;226;48.606;9.096;2022-12-20T12:19:51;5.23;;;4.20;;
479;SDS011;226;48.606;9.096;2022-12-20T12:22:26;5.87;;;4.13;;
479;SDS011;226;48.606;9.096;2022-12-20T12:24:59;7.70;;;4.73;;
479;SDS011;226;48.606;9.096;2022-12-20T12:27:35;5.93;;;3.60;;
479;SDS011;226;48.606;9.096;2022-12-20T12:30:05;5.20;;;4.53;;
479;SDS011;226;48.606;9.096;2022-12-20T12:32:40;11.40;;;5.47;;
479;SDS011;226;48.606;9.096;2022-12-20T12:35:24;4.50;;;3.70;;
479;SDS011;226;48.606;9.096;2022-12-20T12:44:28;10.83;;;4.07;;
479;SDS011;226;48.606;9.096;2022-12-20T12:47:05;5.53;;;4.07;;
479;SDS011;226;48.606;9.096;2022-12-20T12:49:39;4.30;;;3.67;;
479;SDS011;226;48.606;9.096;2022-12-20T12:52:22;4.17;;;3.63;;
479;SDS011;226;48.606;9.096;2022-12-20T12:55:01;10.10;;;5.10;;
479;SDS011;226;48.606;9.096;2022-12-20T12:57:29;12.67;;;4.83;;
479;SDS011;226;48.606;9.096;2022-12-20T13:09:38;4.90;;;3.70;;
479;SDS011;226;48.606;9.096;2022-12-20T13:18:19;4.20;;;3.30;;
479;SDS011;226;48.606;9.096;2022-12-20T13:35:53;2.53;;;2.20;;
479;SDS011;226;48.606;9.096;2022-12-20T13:41:24;3.57;;;2.23;;
479;SDS011;226;48.606;9.096;2022-12-20T13:44:09;5.00;;;3.13;;
479;SDS011;226;48.606;9.096;2022-12-20T13:46:51;5.97;;;3.40;;
479;SDS011;226;48.606;9.096;2022-12-20T13:49:25;3.13;;;2.53;;
479;SDS011;226;48.606;9.096;2022-12-20T13:52:05;2.77;;;2.50;;
479;SDS011;226;48.606;9.096;2022-12-20T13:54:47;3.20;;;3.00;;
479;SDS011;226;48.606;9.096;2022-12-20T13:57:20;12.23;;;3.90;;
479;SDS011;226;48.606;9.096;2022-12-20T13:59:58;3.70;;;3.10;;
479;SDS011;226;48.606;9.096;2022-12-20T14:02:33;5.70;;;3.00;;
479;SDS011;226;48.606;9.096;2022-12-20T14:05:12;3.80;;;3.50;;
479;SDS011;226;48.606;9.096;2022-12-20T14:07:45;3.90;;;3.40;;
479;SDS011;226;48.606;9.096;2022-12-20T14:10:20;3.63;;;3.23;;
479;SDS011;226;48.606;9.096;2022-12-20T14:12:50;3.97;;;3.60;;
479;SDS011;226;48.606;9.096;2022-12-20T14:15:22;10.17;;;5.23;;
479;SDS011;226;48.606;9.096;2022-12-20T14:17:52;4.50;;;4.10;;
479;SDS011;226;48.606;9.096;2022-12-20T14:20:22;5.17;;;4.10;;
479;SDS011;226;48.606;9.096;2022-12-20T14:22:56;7.47;;;5.27;;
479;SDS011;226;48.606;9.096;2022-12-20T14:25:33;7.63;;;5.60;;
479;SDS011;226;48.606;9.096;2022-12-20T14:28:05;7.03;;;5.03;;
479;SDS011;226;48.606;9.096;2022-12-20T14:30:53;7.27;;;6.13;;
479;SDS011;226;48.606;9.096;2022-12-20T14:33:25;9.83;;;6.10;;
479;SDS011;226;48.606;9.096;2022-12-20T14:35:56;8.07;;;5.37;;
479;SDS011;226;48.606;9.096;2022-12-20T14:38:33;6.23;;;5.63;;
479;SDS011;226;48.606;9.096;2022-12-20T14:41:01;7.73;;;4.50;;
479;SDS011;226;48.606;9.096;2022-12-20T14:43:31;7.10;;;4.97;;
479;SDS011;226;48.606;9.096;2022-12-20T14:46:12;7.80;;;4.60;;
479;SDS011;226;48.606;9.096;2022-12-20T14:48:44;11.63;;;5.13;;
479;SDS011;226;48.606;9.096;2022-12-20T14:51:13;9.20;;;4.33;;
479;SDS011;226;48.606;9.096;2022-12-20T14:53:47;15.40;;;5.53;;
479;SDS011;226;48.606;9.096;2022-12-20T14:56:19;11.83;;;5.80;;
479;SDS011;226;48.606;9.096;2022-12-20T14:59:01;9.73;;;4.37;;
479;SDS011;226;48.606;9.096;2022-12-20T15:01:33;7.83;;;4.63;;
479;SDS011;226;48.606;9.096;2022-12-20T15:04:20;6.67;;;4.40;;
479;SDS011;226;48.606;9.096;2022-12-20T15:06:50;7.03;;;4.60;;
479;SDS011;226;48.606;9.096;2022-12-20T15:09:19;8.93;;;5.47;;
479;SDS011;226;48.606;9.096;2022-12-20T15:11:48;9.23;;;4.67;;
479;SDS011;226;48.606;9.096;2022-12-20T15:14:27;11.87;;;4.23;;
479;SDS011;226;48.606;9.096;2022-12-20T15:17:04;11.03;;;3.57;;
479;SDS011;226;48.606;9.096;2022-12-20T15:19:36;7.33;;;4.50;;
479;SDS011;226;48.606;9.096;2022-12-20T15:22:09;4.43;;;3.37;;
479;SDS011;226;48.606;9.096;2022-12-20T15:24:41;3.53;;;2.73;;
479;SDS011;226;48.606;9.096;2022-12-20T15:27:11;5.30;;;4.23;;
479;SDS011;226;48.606;9.096;2022-12-20T15:29:40;4.67;;;4.13;;
479;SDS011;226;48.606;9.096;2022-12-20T15:32:13;5.30;;;3.37;;
479;SDS011;226;48.606;9.096;2022-12-20T15:34:44;11.30;;;5.83;;
479;SDS011;226;48.606;9.096;2022-12-20T15:37:13;4.27;;;3.67;;
479;SDS011;226;48.606;9.096;2022-12-20T15:39:44;5.43;;;3.87;;
479;SDS011;226;48.606;9.096;2022-12-20T15:42:13;19.50;;;5.63;;
479;SDS011;226;48.606;9.096;2022-12-20T15:44:44;11.10;;;5.80;;
479;SDS011;226;48.606;9.096;2022-12-20T15:47:14;35.30;;;8.23;;
479;SDS011;226;48.606;9.096;2022-12-20T15:49:43;13.03;;;6.70;;
479;SDS011;226;48.606;9.096;2022-12-20T15:52:17;8.20;;;4.10;;
479;SDS011;226;48.606;9.096;2022-12-20T15:54:47;9.20;;;5.10;;
479;SDS011;226;48.606;9.096;2022-12-20T15:57:15;11.40;;;6.90;;
479;SDS011;226;48.606;9.096;2022-12-20T15:59:43;15.10;;;8.07;;
479;SDS011;226;48.606;9.096;2022-12-20T16:02:30;18.50;;;8.13;;
479;SDS011;226;48.606;9.096;2022-12-20T16:04:59;14.93;;;7.07;;
479;SDS011;226;48.606;9.096;2022-12-20T16:07:28;16.67;;;6.43;;
479;SDS011;226;48.606;9.096;2022-12-20T16:09:56;20.17;;;6.57;;
479;SDS011;226;48.606;9.096;2022-12-20T16:12:24;10.03;;;6.97;;
479;SDS011;226;48.606;9.096;2022-12-20T16:14:56;11.93;;;7.00;;
479;SDS011;226;48.606;9.096;2022-12-20T16:17:24;7.97;;;5.30;;
479;SDS011;226;48.606;9.096;2022-12-20T16:19:53;9.73;;;7.03;;
479;SDS011;226;48.606;9.096;2022-12-20T16:22:22;12.60;;;7.80;;
479;SDS011;226;48.606;9.096;2022-12-20T16:24:51;12.07;;;6.70;;
479;SDS011;226;48.606;9.096;2022-12-20T16:27:19;22.83;;;8.57;;
479;SDS011;226;48.606;9.096;2022-12-20T16:29:47;16.23;;;6.80;;
479;SDS011;226;48.606;9.096;2022-12-20T16:32:16;19.43;;;11.73;;
479;SDS011;226;48.606;9.096;2022-12-20T16:34:47;21.10;;;9.37;;
479;SDS011;226;48.606;9.096;2022-12-20T16:37:17;15.13;;;8.10;;
479;SDS011;226;48.606;9.096;2022-12-20T16:39:46;12.20;;;6.10;;
479;SDS011;226;48.606;9.096;2022-12-20T16:42:14;14.37;;;7.90;;
479;SDS011;226;48.606;9.096;2022-12-20T16:44:46;8.97;;;5.40;;
479;SDS011;226;48.606;9.096;2022-12-20T16:47:18;8.80;;;7.50;;
479;SDS011;226;48.606;9.096;2022-12-20T16:49:46;16.63;;;6.73;;